createdAt,value
2023-04-26T00:01:01.618Z,5.00
2023-04-26T00:06:03.959Z,4.15
2023-04-26T00:11:06.066Z,9.32
2023-04-26T00:16:08.151Z,6.68
2023-04-26T00:21:10.685Z,7.13
2023-04-26T00:26:12.850Z,6.70
2023-04-26T00:31:18.465Z,6.53
2023-04-26T00:36:20.817Z,6.90
2023-04-26T00:41:22.952Z,5.35
2023-04-26T00:46:25.157Z,6.85
2023-04-26T00:51:28.334Z,6.15
2023-04-26T00:56:32.128Z,8.43
2023-04-26T01:01:35.726Z,6.95
2023-04-26T01:06:38.629Z,6.05
2023-04-26T01:11:42.195Z,8.45
2023-04-26T01:16:47.010Z,8.38
2023-04-26T01:21:49.477Z,6.80
2023-04-26T01:26:51.616Z,4.60
2023-04-26T01:31:55.463Z,4.38
2023-04-26T01:36:57.612Z,4.80
2023-04-26T01:41:59.802Z,8.48
2023-04-26T01:47:01.958Z,8.13
2023-04-26T01:52:04.320Z,3.80
2023-04-26T01:57:06.379Z,7.82
2023-04-26T02:02:08.589Z,6.10
2023-04-26T02:07:13.478Z,4.73
2023-04-26T02:12:21.017Z,4.43
2023-04-26T02:17:23.700Z,6.68
2023-04-26T02:22:26.622Z,4.80
2023-04-26T02:27:28.925Z,6.65
2023-04-26T02:32:31.143Z,4.43
2023-04-26T02:37:34.309Z,4.80
2023-04-26T02:42:36.607Z,3.90
2023-04-26T02:47:39.230Z,4.80
2023-04-26T02:52:41.839Z,5.30
2023-04-26T02:57:43.981Z,4.03
2023-04-26T03:02:46.571Z,4.90
2023-04-26T03:07:48.731Z,5.18
2023-04-26T03:12:50.858Z,4.25
2023-04-26T03:17:53.121Z,2.45
2023-04-26T03:22:57.165Z,4.35
2023-04-26T03:27:59.294Z,3.38
2023-04-26T03:33:01.826Z,4.95
2023-04-26T03:38:04.492Z,4.70
2023-04-26T03:43:06.964Z,3.13
2023-04-26T03:48:09.211Z,2.95
2023-04-26T03:53:12.224Z,3.35
2023-04-26T03:58:14.721Z,4.38
2023-04-26T04:03:18.155Z,2.95
2023-04-26T04:08:20.481Z,4.07
2023-04-26T04:13:22.623Z,3.10
2023-04-26T04:18:25.090Z,3.78
2023-04-26T04:23:28.133Z,3.97
2023-04-26T04:28:30.340Z,2.50
2023-04-26T04:33:32.856Z,2.47
2023-04-26T04:38:36.152Z,1.92
2023-04-26T04:43:40.480Z,2.28
2023-04-26T04:48:44.342Z,2.85
2023-04-26T04:53:46.767Z,2.55
2023-04-26T04:58:48.925Z,2.40
2023-04-26T05:03:54.064Z,2.25
2023-04-26T05:08:57.000Z,2.13
2023-04-26T05:13:59.831Z,2.83
2023-04-26T05:19:02.220Z,2.33
2023-04-26T05:24:04.979Z,2.35
2023-04-26T05:29:07.167Z,3.80
2023-04-26T05:34:20.579Z,2.60
2023-04-26T05:39:26.597Z,2.80
2023-04-26T05:44:29.334Z,4.07
2023-04-26T05:49:31.933Z,2.40
2023-04-26T05:54:34.135Z,2.25
2023-04-26T05:59:37.186Z,2.80
2023-04-26T06:04:40.332Z,4.53
2023-04-26T06:09:46.560Z,3.70
2023-04-26T06:14:49.635Z,2.67
2023-04-26T06:19:56.366Z,2.92
2023-04-26T06:24:58.525Z,2.40
2023-04-26T06:30:01.797Z,2.75
2023-04-26T06:35:08.132Z,3.20
2023-04-26T06:40:11.249Z,2.33
2023-04-26T06:45:14.134Z,2.67
2023-04-26T06:50:16.431Z,2.47
2023-04-26T06:55:19.036Z,2.30
2023-04-26T07:00:21.569Z,2.60
2023-04-26T07:05:23.848Z,2.40
2023-04-26T07:10:27.455Z,2.40
2023-04-26T07:15:29.968Z,2.47
2023-04-26T07:20:32.091Z,2.10
2023-04-26T07:25:34.431Z,2.45
2023-04-26T07:30:36.643Z,1.90
2023-04-26T07:35:38.849Z,1.73
2023-04-26T07:40:43.267Z,2.30
2023-04-26T07:45:45.447Z,2.05
2023-04-26T07:50:47.553Z,1.77
2023-04-26T07:55:51.697Z,1.50
2023-04-26T08:00:55.130Z,0.88
2023-04-26T08:05:59.180Z,1.35
2023-04-26T08:11:01.404Z,1.15
2023-04-26T08:16:03.530Z,0.90
2023-04-26T08:21:06.418Z,1.10
2023-04-26T08:26:08.484Z,1.00
2023-04-26T08:31:10.635Z,0.82
2023-04-26T08:36:12.935Z,0.82
2023-04-26T08:41:20.491Z,0.57
2023-04-26T08:46:23.647Z,0.60
2023-04-26T08:51:27.406Z,0.60
2023-04-26T08:56:29.618Z,1.65
2023-04-26T09:01:33.646Z,0.65
2023-04-26T09:06:37.204Z,0.85
2023-04-26T09:11:59.676Z,0.90
2023-04-26T09:17:02.017Z,1.75
2023-04-26T09:22:04.784Z,0.85
2023-04-26T09:27:07.138Z,0.90
2023-04-26T09:32:09.266Z,1.13
2023-04-26T09:37:13.957Z,1.00
2023-04-26T09:42:19.238Z,0.80
2023-04-26T09:47:22.369Z,1.27
2023-04-26T09:52:24.423Z,1.40
2023-04-26T09:57:26.473Z,0.47
2023-04-26T10:02:30.072Z,0.60
2023-04-26T10:07:32.540Z,0.75
2023-04-26T10:12:34.833Z,0.57
2023-04-26T10:17:38.142Z,0.90
2023-04-26T10:22:45.572Z,0.60
2023-04-26T10:27:48.889Z,0.50
2023-04-26T10:32:56.938Z,1.23
2023-04-26T10:38:01.962Z,0.80
2023-04-26T10:43:16.096Z,0.53
2023-04-26T10:48:22.523Z,0.45
2023-04-26T10:53:25.094Z,0.85
2023-04-26T10:58:32.309Z,1.15
2023-04-26T11:03:35.032Z,0.85
2023-04-26T11:08:37.294Z,0.88
2023-04-26T11:13:43.871Z,0.85
2023-04-26T11:18:47.721Z,0.50
2023-04-26T11:23:56.305Z,0.68
2023-04-26T11:28:58.447Z,0.30
2023-04-26T11:34:06.301Z,1.30
2023-04-26T11:39:08.430Z,0.40
2023-04-26T11:44:12.664Z,0.30
2023-04-26T11:49:16.280Z,0.80
2023-04-26T11:54:31.978Z,1.27
2023-04-26T11:59:34.136Z,1.35
2023-04-26T12:04:41.186Z,1.15
2023-04-26T12:09:44.042Z,1.42
2023-04-26T12:14:47.744Z,1.17
2023-04-26T12:19:50.398Z,1.55
2023-04-26T12:25:05.569Z,0.40
2023-04-26T12:30:08.398Z,0.70
2023-04-26T12:35:10.573Z,1.00
2023-04-26T12:40:13.125Z,1.40
2023-04-26T12:45:15.652Z,0.80
2023-04-26T12:50:18.780Z,0.50
2023-04-26T12:55:21.310Z,2.03
2023-04-26T13:00:23.628Z,1.10
2023-04-26T13:05:25.840Z,1.27
2023-04-26T13:10:28.191Z,1.63
2023-04-26T13:15:30.425Z,1.95
2023-04-26T13:20:32.620Z,1.38
2023-04-26T13:25:34.690Z,1.80
2023-04-26T13:30:36.793Z,0.60
2023-04-26T13:35:38.902Z,1.20
2023-04-26T13:40:41.069Z,2.33
2023-04-26T13:45:44.169Z,3.60
2023-04-26T13:50:46.313Z,0.50
2023-04-26T13:55:51.840Z,0.65
2023-04-26T14:00:54.092Z,1.75
2023-04-26T14:05:56.675Z,0.77
2023-04-26T14:10:59.158Z,1.50
2023-04-26T14:16:01.259Z,0.75
2023-04-26T14:21:04.323Z,2.13
2023-04-26T14:26:06.603Z,1.63
2023-04-26T14:31:08.787Z,1.13
2023-04-26T14:36:11.145Z,1.35
2023-04-26T14:41:19.316Z,0.90
2023-04-26T14:46:21.628Z,1.33
2023-04-26T14:51:24.120Z,0.52
2023-04-26T14:56:26.318Z,1.35
2023-04-26T15:01:29.009Z,1.52
2023-04-26T15:06:32.176Z,0.70
2023-04-26T15:11:34.334Z,2.22
2023-04-26T15:16:36.456Z,1.85
2023-04-26T15:21:38.609Z,0.70
2023-04-26T15:26:40.744Z,1.67
2023-04-26T15:31:42.893Z,1.02
2023-04-26T15:36:44.952Z,0.75
2023-04-26T15:41:47.104Z,0.50
2023-04-26T15:46:49.212Z,0.88
2023-04-26T15:51:51.351Z,0.82
2023-04-26T15:56:53.617Z,0.73
2023-04-26T16:01:56.251Z,1.35
2023-04-26T16:06:58.351Z,1.15
2023-04-26T16:12:01.167Z,2.10
2023-04-26T16:17:05.109Z,2.17
2023-04-26T16:22:07.228Z,1.50
2023-04-26T16:27:09.598Z,1.73
2023-04-26T16:32:11.759Z,1.35
2023-04-26T16:37:14.781Z,3.95
2023-04-26T16:42:16.895Z,0.85
2023-04-26T16:47:18.947Z,3.03
2023-04-26T16:52:21.427Z,2.28
2023-04-26T16:57:24.494Z,2.53
2023-04-26T17:02:26.905Z,2.17
2023-04-26T17:07:29.052Z,2.58
2023-04-26T17:12:31.146Z,2.17
2023-04-26T17:17:34.418Z,1.10
2023-04-26T17:22:36.775Z,1.10
2023-04-26T17:27:38.837Z,0.50
2023-04-26T17:32:41.332Z,2.10
2023-04-26T17:37:44.119Z,2.80
2023-04-26T17:42:46.777Z,2.10
2023-04-26T17:47:49.080Z,2.03
2023-04-26T17:52:51.256Z,1.83
2023-04-26T17:57:53.270Z,2.40
2023-04-26T18:02:57.543Z,1.55
2023-04-26T18:07:59.969Z,3.38
2023-04-26T18:13:02.825Z,3.80
2023-04-26T18:18:07.983Z,4.32
2023-04-26T18:23:10.210Z,2.85
2023-04-26T18:28:12.632Z,1.60
2023-04-26T18:33:14.790Z,2.50
2023-04-26T18:38:17.710Z,2.22
2023-04-26T18:43:20.100Z,1.90
2023-04-26T18:48:22.390Z,2.80
2023-04-26T18:53:24.536Z,3.58
2023-04-26T18:58:26.673Z,1.92
2023-04-26T19:03:29.177Z,2.15
2023-04-26T19:08:31.496Z,4.32
2023-04-26T19:13:33.535Z,2.63
2023-04-26T19:18:40.526Z,2.55
2023-04-26T19:23:43.545Z,4.70
2023-04-26T19:28:46.944Z,2.83
2023-04-26T19:33:49.121Z,1.83
2023-04-26T19:38:51.229Z,2.42
2023-04-26T19:43:53.328Z,1.50
2023-04-26T19:48:55.364Z,0.80
2023-04-26T19:53:57.469Z,2.08
2023-04-26T19:58:59.549Z,2.40
2023-04-26T20:04:02.091Z,0.73
2023-04-26T20:09:05.986Z,1.20
2023-04-26T20:14:08.217Z,1.77
2023-04-26T20:19:10.738Z,3.65
2023-04-26T20:24:12.880Z,1.13
2023-04-26T20:29:14.961Z,2.40
2023-04-26T20:34:17.337Z,1.45
2023-04-26T20:39:21.845Z,0.95
2023-04-26T20:44:23.953Z,2.45
2023-04-26T20:49:26.013Z,3.85
2023-04-26T20:54:28.079Z,4.25
2023-04-26T20:59:30.193Z,4.18
2023-04-26T21:04:32.697Z,3.22
2023-04-26T21:09:35.137Z,2.25
2023-04-26T21:14:37.214Z,4.85
2023-04-26T21:19:39.594Z,4.30
2023-04-26T21:24:41.801Z,2.83
2023-04-26T21:29:43.899Z,2.95
2023-04-26T21:34:46.246Z,2.58
2023-04-26T21:39:48.289Z,3.00
2023-04-26T21:44:50.588Z,3.15
2023-04-26T21:49:52.614Z,3.35
2023-04-26T21:54:54.686Z,3.63
2023-04-26T21:59:56.774Z,3.17
2023-04-26T22:04:58.909Z,4.20
2023-04-26T22:10:01.637Z,3.05
2023-04-26T22:15:03.782Z,3.00
2023-04-26T22:20:06.986Z,3.30
2023-04-26T22:25:09.733Z,4.53
2023-04-26T22:30:22.925Z,4.65
2023-04-26T22:35:27.574Z,3.45
2023-04-26T22:40:29.688Z,5.45
2023-04-26T22:45:31.807Z,3.15
2023-04-26T22:50:34.007Z,2.35
2023-04-26T22:55:36.105Z,4.30
2023-04-26T23:00:38.165Z,3.88
2023-04-26T23:05:40.440Z,2.85
2023-04-26T23:10:42.707Z,4.45
2023-04-26T23:15:44.778Z,3.78
2023-04-26T23:20:46.969Z,4.32
2023-04-26T23:25:49.060Z,3.28
2023-04-26T23:30:51.222Z,3.10
2023-04-26T23:35:56.880Z,3.65
2023-04-26T23:40:59.041Z,4.20
2023-04-26T23:46:01.395Z,3.47
2023-04-26T23:51:04.146Z,2.35
2023-04-26T23:56:07.286Z,2.03
